sensor_id;sensor_type;location;lat;lon;timestamp;pressure;altitude;pressure_sealevel;temperature;humidity
29359;BME280;16347;53.232;6.556;2023-03-13T00:02:07;100040.00;;;10.18;76.96
29359;BME280;16347;53.232;6.556;2023-03-13T00:04:36;100041.69;;;10.11;77.54
29359;BME280;16347;53.232;6.556;2023-03-13T00:07:05;100033.94;;;10.00;78.18
29359;BME280;16347;53.232;6.556;2023-03-13T00:09:33;100023.59;;;10.03;77.97
29359;BME280;16347;53.232;6.556;2023-03-13T00:12:00;100029.19;;;10.02;78.19
29359;BME280;16347;53.232;6.556;2023-03-13T00:14:28;100014.91;;;10.16;78.17
29359;BME280;16347;53.232;6.556;2023-03-13T00:16:56;100011.81;;;10.11;78.01
29359;BME280;16347;53.232;6.556;2023-03-13T00:19:25;100004.09;;;9.92;78.89
29359;BME280;16347;53.232;6.556;2023-03-13T00:21:54;99996.44;;;10.03;79.02
29359;BME280;16347;53.232;6.556;2023-03-13T00:24:22;99974.84;;;10.10;78.64
29359;BME280;16347;53.232;6.556;2023-03-13T00:26:50;99974.69;;;10.03;79.41
29359;BME280;16347;53.232;6.556;2023-03-13T00:29:19;99982.16;;;10.01;78.99
29359;BME280;16347;53.232;6.556;2023-03-13T00:31:47;99965.56;;;9.96;79.78
29359;BME280;16347;53.232;6.556;2023-03-13T00:34:15;99944.19;;;9.93;79.93
29359;BME280;16347;53.232;6.556;2023-03-13T00:36:43;99953.34;;;10.00;79.99
29359;BME280;16347;53.232;6.556;2023-03-13T00:39:13;99934.00;;;9.87;80.67
29359;BME280;16347;53.232;6.556;2023-03-13T00:41:41;99934.47;;;10.07;80.54
29359;BME280;16347;53.232;6.556;2023-03-13T00:44:09;99928.25;;;9.90;80.92
29359;BME280;16347;53.232;6.556;2023-03-13T00:46:37;99918.34;;;9.97;81.03
29359;BME280;16347;53.232;6.556;2023-03-13T00:49:06;99911.38;;;10.03;80.25
29359;BME280;16347;53.232;6.556;2023-03-13T00:51:34;99907.50;;;9.97;80.32
29359;BME280;16347;53.232;6.556;2023-03-13T00:54:02;99890.25;;;10.21;80.10
29359;BME280;16347;53.232;6.556;2023-03-13T00:56:33;99897.81;;;10.03;80.13
29359;BME280;16347;53.232;6.556;2023-03-13T00:59:01;99892.97;;;9.90;80.43
29359;BME280;16347;53.232;6.556;2023-03-13T01:01:30;99872.25;;;9.89;80.62
29359;BME280;16347;53.232;6.556;2023-03-13T01:04:00;99883.97;;;9.90;80.73
29359;BME280;16347;53.232;6.556;2023-03-13T01:06:30;99878.47;;;9.98;80.49
29359;BME280;16347;53.232;6.556;2023-03-13T01:08:59;99873.94;;;9.90;80.39
29359;BME280;16347;53.232;6.556;2023-03-13T01:11:29;99859.34;;;9.91;80.94
29359;BME280;16347;53.232;6.556;2023-03-13T01:14:02;99859.94;;;10.01;80.73
29359;BME280;16347;53.232;6.556;2023-03-13T01:16:32;99847.22;;;10.02;80.41
29359;BME280;16347;53.232;6.556;2023-03-13T01:19:02;99848.72;;;10.04;80.59
29359;BME280;16347;53.232;6.556;2023-03-13T01:21:31;99827.56;;;10.00;80.43
29359;BME280;16347;53.232;6.556;2023-03-13T01:23:59;99839.56;;;10.05;80.57
29359;BME280;16347;53.232;6.556;2023-03-13T01:26:28;99831.78;;;10.02;81.01
29359;BME280;16347;53.232;6.556;2023-03-13T01:28:56;99829.78;;;9.96;81.01
29359;BME280;16347;53.232;6.556;2023-03-13T01:31:28;99824.16;;;9.98;81.14
29359;BME280;16347;53.232;6.556;2023-03-13T01:33:59;99818.97;;;10.11;81.21
29359;BME280;16347;53.232;6.556;2023-03-13T01:36:28;99814.09;;;10.06;81.11
29359;BME280;16347;53.232;6.556;2023-03-13T01:38:58;99803.53;;;9.89;82.12
29359;BME280;16347;53.232;6.556;2023-03-13T01:41:29;99784.63;;;9.95;81.74
29359;BME280;16347;53.232;6.556;2023-03-13T01:43:58;99787.59;;;10.08;82.06
29359;BME280;16347;53.232;6.556;2023-03-13T01:46:33;99773.72;;;10.03;81.63
29359;BME280;16347;53.232;6.556;2023-03-13T01:49:12;99768.59;;;10.08;81.99
29359;BME280;16347;53.232;6.556;2023-03-13T01:52:03;99756.50;;;10.11;81.60
29359;BME280;16347;53.232;6.556;2023-03-13T01:54:41;99749.41;;;10.10;81.55
29359;BME280;16347;53.232;6.556;2023-03-13T01:57:17;99733.69;;;9.97;82.32
29359;BME280;16347;53.232;6.556;2023-03-13T01:59:51;99731.56;;;9.93;82.30
29359;BME280;16347;53.232;6.556;2023-03-13T02:02:22;99723.56;;;9.91;82.44
29359;BME280;16347;53.232;6.556;2023-03-13T02:04:53;99709.63;;;9.94;82.61
29359;BME280;16347;53.232;6.556;2023-03-13T02:07:26;99702.09;;;9.82;82.92
29359;BME280;16347;53.232;6.556;2023-03-13T02:09:57;99682.34;;;9.88;83.08
29359;BME280;16347;53.232;6.556;2023-03-13T02:12:30;99670.84;;;9.86;83.37
29359;BME280;16347;53.232;6.556;2023-03-13T02:15:03;99663.66;;;9.93;83.28
29359;BME280;16347;53.232;6.556;2023-03-13T02:17:34;99650.94;;;9.93;83.26
29359;BME280;16347;53.232;6.556;2023-03-13T02:20:03;99636.09;;;9.81;83.86
29359;BME280;16347;53.232;6.556;2023-03-13T02:22:36;99629.22;;;9.93;83.55
29359;BME280;16347;53.232;6.556;2023-03-13T02:25:10;99627.69;;;9.91;83.82
29359;BME280;16347;53.232;6.556;2023-03-13T02:27:46;99620.03;;;9.94;84.37
29359;BME280;16347;53.232;6.556;2023-03-13T02:30:15;99612.50;;;9.82;84.52
29359;BME280;16347;53.232;6.556;2023-03-13T02:32:44;99603.84;;;9.86;84.91
29359;BME280;16347;53.232;6.556;2023-03-13T02:35:14;99602.25;;;9.92;84.65
29359;BME280;16347;53.232;6.556;2023-03-13T02:37:45;99594.19;;;9.98;84.57
29359;BME280;16347;53.232;6.556;2023-03-13T02:40:21;99587.44;;;9.94;84.24
29359;BME280;16347;53.232;6.556;2023-03-13T02:42:52;99580.34;;;10.08;84.53
29359;BME280;16347;53.232;6.556;2023-03-13T02:45:22;99569.97;;;9.97;84.58
29359;BME280;16347;53.232;6.556;2023-03-13T02:47:50;99557.31;;;9.89;84.98
29359;BME280;16347;53.232;6.556;2023-03-13T02:50:19;99546.72;;;10.09;84.96
29359;BME280;16347;53.232;6.556;2023-03-13T02:52:52;99548.78;;;9.92;85.05
29359;BME280;16347;53.232;6.556;2023-03-13T02:55:23;99522.84;;;9.90;85.89
29359;BME280;16347;53.232;6.556;2023-03-13T02:57:54;99530.91;;;9.83;86.72
29359;BME280;16347;53.232;6.556;2023-03-13T03:00:22;99510.97;;;9.76;86.90
29359;BME280;16347;53.232;6.556;2023-03-13T03:02:53;99503.56;;;9.85;87.13
29359;BME280;16347;53.232;6.556;2023-03-13T03:05:22;99514.31;;;9.78;87.38
29359;BME280;16347;53.232;6.556;2023-03-13T03:07:51;99507.19;;;9.77;88.09
29359;BME280;16347;53.232;6.556;2023-03-13T03:10:19;99513.41;;;9.86;87.94
29359;BME280;16347;53.232;6.556;2023-03-13T03:12:47;99480.91;;;9.92;87.47
29359;BME280;16347;53.232;6.556;2023-03-13T03:15:17;99467.88;;;9.88;87.65
29359;BME280;16347;53.232;6.556;2023-03-13T03:17:47;99460.78;;;9.72;88.34
29359;BME280;16347;53.232;6.556;2023-03-13T03:20:15;99470.97;;;9.85;88.18
29359;BME280;16347;53.232;6.556;2023-03-13T03:22:43;99458.16;;;9.93;88.22
29359;BME280;16347;53.232;6.556;2023-03-13T03:25:11;99445.13;;;10.03;87.39
29359;BME280;16347;53.232;6.556;2023-03-13T03:27:40;99439.44;;;9.84;88.15
29359;BME280;16347;53.232;6.556;2023-03-13T03:30:09;99440.56;;;9.74;88.67
29359;BME280;16347;53.232;6.556;2023-03-13T03:32:39;99435.03;;;9.83;88.96
29359;BME280;16347;53.232;6.556;2023-03-13T03:35:08;99431.94;;;10.00;88.69
29359;BME280;16347;53.232;6.556;2023-03-13T03:37:36;99426.50;;;10.00;88.61
29359;BME280;16347;53.232;6.556;2023-03-13T03:40:05;99416.38;;;9.94;89.03
29359;BME280;16347;53.232;6.556;2023-03-13T03:42:34;99415.66;;;9.86;89.28
29359;BME280;16347;53.232;6.556;2023-03-13T03:45:03;99422.47;;;9.96;88.96
29359;BME280;16347;53.232;6.556;2023-03-13T03:47:32;99415.44;;;10.02;89.34
29359;BME280;16347;53.232;6.556;2023-03-13T03:50:01;99403.81;;;10.08;88.80
29359;BME280;16347;53.232;6.556;2023-03-13T03:52:37;99407.38;;;10.08;89.28
29359;BME280;16347;53.232;6.556;2023-03-13T03:55:06;99396.63;;;10.15;89.53
29359;BME280;16347;53.232;6.556;2023-03-13T03:57:34;99401.03;;;10.16;89.26
29359;BME280;16347;53.232;6.556;2023-03-13T04:00:05;99378.28;;;10.17;89.56
29359;BME280;16347;53.232;6.556;2023-03-13T04:02:38;99388.81;;;10.12;90.47
29359;BME280;16347;53.232;6.556;2023-03-13T04:05:09;99384.41;;;10.11;90.33
29359;BME280;16347;53.232;6.556;2023-03-13T04:07:39;99400.09;;;10.23;90.74
29359;BME280;16347;53.232;6.556;2023-03-13T04:10:08;99383.78;;;10.09;91.24
29359;BME280;16347;53.232;6.556;2023-03-13T04:12:41;99374.56;;;10.24;90.93
29359;BME280;16347;53.232;6.556;2023-03-13T04:15:10;99378.44;;;10.30;91.11
29359;BME280;16347;53.232;6.556;2023-03-13T04:17:39;99366.78;;;10.36;91.17
29359;BME280;16347;53.232;6.556;2023-03-13T04:20:12;99376.69;;;10.44;91.32
29359;BME280;16347;53.232;6.556;2023-03-13T04:22:40;99360.50;;;10.36;91.50
29359;BME280;16347;53.232;6.556;2023-03-13T04:25:09;99348.78;;;10.56;91.63
29359;BME280;16347;53.232;6.556;2023-03-13T04:27:38;99346.19;;;10.48;91.94
29359;BME280;16347;53.232;6.556;2023-03-13T04:30:08;99366.63;;;10.44;91.88
29359;BME280;16347;53.232;6.556;2023-03-13T04:32:59;99337.88;;;10.50;92.27
29359;BME280;16347;53.232;6.556;2023-03-13T04:35:32;99344.00;;;10.58;92.33
29359;BME280;16347;53.232;6.556;2023-03-13T04:38:27;99332.03;;;10.74;92.01
29359;BME280;16347;53.232;6.556;2023-03-13T04:40:55;99345.34;;;10.69;92.66
29359;BME280;16347;53.232;6.556;2023-03-13T04:43:49;99345.41;;;10.75;92.24
29359;BME280;16347;53.232;6.556;2023-03-13T04:46:43;99330.44;;;10.86;91.98
29359;BME280;16347;53.232;6.556;2023-03-13T04:49:31;99324.81;;;10.88;92.67
29359;BME280;16347;53.232;6.556;2023-03-13T04:52:28;99322.31;;;10.93;92.45
29359;BME280;16347;53.232;6.556;2023-03-13T04:55:16;99315.50;;;11.03;92.29
29359;BME280;16347;53.232;6.556;2023-03-13T04:57:52;99324.53;;;11.10;91.97
29359;BME280;16347;53.232;6.556;2023-03-13T05:00:35;99300.44;;;11.01;93.15
29359;BME280;16347;53.232;6.556;2023-03-13T05:03:22;99316.84;;;11.14;92.85
29359;BME280;16347;53.232;6.556;2023-03-13T05:06:06;99284.88;;;11.29;92.48
29359;BME280;16347;53.232;6.556;2023-03-13T05:08:56;99294.59;;;11.38;91.59
29359;BME280;16347;53.232;6.556;2023-03-13T05:11:43;99286.59;;;11.37;91.47
29359;BME280;16347;53.232;6.556;2023-03-13T05:14:47;99322.56;;;11.32;91.59
29359;BME280;16347;53.232;6.556;2023-03-13T05:17:30;99279.22;;;11.24;92.62
29359;BME280;16347;53.232;6.556;2023-03-13T05:20:17;99285.34;;;11.39;92.46
29359;BME280;16347;53.232;6.556;2023-03-13T05:23:01;99270.88;;;11.32;93.25
29359;BME280;16347;53.232;6.556;2023-03-13T05:25:47;99250.81;;;11.40;92.94
29359;BME280;16347;53.232;6.556;2023-03-13T05:28:24;99261.72;;;11.40;93.05
29359;BME280;16347;53.232;6.556;2023-03-13T05:31:28;99370.97;;;11.37;92.51
29359;BME280;16347;53.232;6.556;2023-03-13T05:34:07;99254.41;;;11.47;92.33
29359;BME280;16347;53.232;6.556;2023-03-13T05:36:41;99254.44;;;11.53;91.95
29359;BME280;16347;53.232;6.556;2023-03-13T05:39:28;99287.13;;;11.60;91.23
29359;BME280;16347;53.232;6.556;2023-03-13T05:42:11;99242.94;;;11.58;91.16
29359;BME280;16347;53.232;6.556;2023-03-13T05:44:49;99258.00;;;11.54;91.31
29359;BME280;16347;53.232;6.556;2023-03-13T05:47:46;99273.28;;;11.48;91.43
29359;BME280;16347;53.232;6.556;2023-03-13T05:50:33;99251.69;;;11.47;92.14
29359;BME280;16347;53.232;6.556;2023-03-13T05:53:39;99283.13;;;11.56;91.98
29359;BME280;16347;53.232;6.556;2023-03-13T05:56:24;99262.19;;;11.56;91.81
29359;BME280;16347;53.232;6.556;2023-03-13T05:59:05;99236.63;;;11.44;92.07
29359;BME280;16347;53.232;6.556;2023-03-13T06:02:08;99249.00;;;11.53;91.94
29359;BME280;16347;53.232;6.556;2023-03-13T06:04:41;99250.06;;;11.65;91.38
29359;BME280;16347;53.232;6.556;2023-03-13T06:07:10;99225.94;;;11.49;91.53
29359;BME280;16347;53.232;6.556;2023-03-13T06:09:38;99225.97;;;11.56;91.65
29359;BME280;16347;53.232;6.556;2023-03-13T06:12:08;99224.31;;;11.55;91.43
29359;BME280;16347;53.232;6.556;2023-03-13T06:14:39;99251.69;;;11.47;91.94
29359;BME280;16347;53.232;6.556;2023-03-13T06:17:13;99219.03;;;11.47;92.54
29359;BME280;16347;53.232;6.556;2023-03-13T06:19:41;99221.19;;;11.58;92.34
29359;BME280;16347;53.232;6.556;2023-03-13T06:22:09;99222.41;;;11.55;92.07
29359;BME280;16347;53.232;6.556;2023-03-13T06:24:37;99227.66;;;11.57;92.24
29359;BME280;16347;53.232;6.556;2023-03-13T06:27:06;99229.72;;;11.48;92.07
29359;BME280;16347;53.232;6.556;2023-03-13T06:29:34;99229.53;;;11.56;91.56
29359;BME280;16347;53.232;6.556;2023-03-13T06:32:04;99234.22;;;11.75;90.82
29359;BME280;16347;53.232;6.556;2023-03-13T06:34:32;99216.66;;;11.78;90.11
29359;BME280;16347;53.232;6.556;2023-03-13T06:37:00;99227.69;;;11.70;89.94
29359;BME280;16347;53.232;6.556;2023-03-13T06:39:29;99240.03;;;11.66;90.02
29359;BME280;16347;53.232;6.556;2023-03-13T06:41:57;99211.41;;;11.76;89.26
29359;BME280;16347;53.232;6.556;2023-03-13T06:44:25;99236.50;;;11.72;89.32
29359;BME280;16347;53.232;6.556;2023-03-13T06:46:53;99216.41;;;11.73;89.66
29359;BME280;16347;53.232;6.556;2023-03-13T06:49:23;99294.53;;;11.72;89.57
29359;BME280;16347;53.232;6.556;2023-03-13T06:51:51;99228.34;;;11.72;89.82
29359;BME280;16347;53.232;6.556;2023-03-13T06:54:19;99211.41;;;11.76;89.56
29359;BME280;16347;53.232;6.556;2023-03-13T06:56:47;99221.03;;;11.79;89.68
29359;BME280;16347;53.232;6.556;2023-03-13T06:59:15;99199.47;;;11.77;89.12
29359;BME280;16347;53.232;6.556;2023-03-13T07:01:43;99199.50;;;11.84;89.10
29359;BME280;16347;53.232;6.556;2023-03-13T07:04:12;99190.69;;;11.89;88.61
29359;BME280;16347;53.232;6.556;2023-03-13T07:06:42;99226.06;;;11.82;88.08
29359;BME280;16347;53.232;6.556;2023-03-13T07:09:10;99208.69;;;11.90;88.19
29359;BME280;16347;53.232;6.556;2023-03-13T07:11:38;99189.66;;;11.96;87.55
29359;BME280;16347;53.232;6.556;2023-03-13T07:14:06;99190.28;;;11.98;87.08
29359;BME280;16347;53.232;6.556;2023-03-13T07:16:42;99195.31;;;12.08;86.58
29359;BME280;16347;53.232;6.556;2023-03-13T07:19:11;99189.03;;;12.14;85.93
29359;BME280;16347;53.232;6.556;2023-03-13T07:21:41;99179.19;;;12.06;85.71
29359;BME280;16347;53.232;6.556;2023-03-13T07:24:10;99194.25;;;12.02;85.89
29359;BME280;16347;53.232;6.556;2023-03-13T07:26:38;99208.09;;;12.01;85.94
29359;BME280;16347;53.232;6.556;2023-03-13T07:29:20;99184.84;;;12.05;85.67
29359;BME280;16347;53.232;6.556;2023-03-13T07:31:48;99207.06;;;12.02;85.66
29359;BME280;16347;53.232;6.556;2023-03-13T07:34:16;99187.16;;;12.01;86.07
29359;BME280;16347;53.232;6.556;2023-03-13T07:36:46;99202.84;;;12.12;86.13
29359;BME280;16347;53.232;6.556;2023-03-13T07:39:14;99189.03;;;12.07;86.81
29359;BME280;16347;53.232;6.556;2023-03-13T07:41:42;99198.25;;;12.00;87.19
29359;BME280;16347;53.232;6.556;2023-03-13T07:44:14;99184.84;;;11.85;87.53
29359;BME280;16347;53.232;6.556;2023-03-13T07:46:42;99207.88;;;11.96;87.59
29359;BME280;16347;53.232;6.556;2023-03-13T07:49:11;99228.63;;;11.90;88.09
29359;BME280;16347;53.232;6.556;2023-03-13T07:51:40;99208.94;;;12.01;88.06
29359;BME280;16347;53.232;6.556;2023-03-13T07:54:11;99202.41;;;11.89;88.14
29359;BME280;16347;53.232;6.556;2023-03-13T07:56:39;99213.13;;;11.91;88.63
29359;BME280;16347;53.232;6.556;2023-03-13T07:59:08;99227.53;;;11.78;88.66
29359;BME280;16347;53.232;6.556;2023-03-13T08:01:36;99205.13;;;11.82;88.45
29359;BME280;16347;53.232;6.556;2023-03-13T08:04:04;99220.84;;;11.87;87.84
29359;BME280;16347;53.232;6.556;2023-03-13T08:06:34;99215.19;;;11.82;88.48
29359;BME280;16347;53.232;6.556;2023-03-13T08:09:03;99208.25;;;11.79;88.72
29359;BME280;16347;53.232;6.556;2023-03-13T08:11:33;99240.09;;;11.86;88.11
29359;BME280;16347;53.232;6.556;2023-03-13T08:14:01;99259.34;;;11.71;88.97
29359;BME280;16347;53.232;6.556;2023-03-13T08:16:31;99258.75;;;11.82;88.82
29359;BME280;16347;53.232;6.556;2023-03-13T08:19:02;99205.34;;;11.88;88.35
29359;BME280;16347;53.232;6.556;2023-03-13T08:21:33;99223.16;;;11.97;87.62
29359;BME280;16347;53.232;6.556;2023-03-13T08:24:04;99206.00;;;11.96;86.58
29359;BME280;16347;53.232;6.556;2023-03-13T08:26:36;99199.09;;;12.13;86.40
29359;BME280;16347;53.232;6.556;2023-03-13T08:29:06;99209.56;;;12.03;85.88
29359;BME280;16347;53.232;6.556;2023-03-13T08:31:36;99196.16;;;12.15;85.72
29359;BME280;16347;53.232;6.556;2023-03-13T08:34:04;99212.09;;;12.18;85.21
29359;BME280;16347;53.232;6.556;2023-03-13T08:36:34;99204.97;;;12.17;85.32
29359;BME280;16347;53.232;6.556;2023-03-13T08:39:04;99178.56;;;12.30;84.66
29359;BME280;16347;53.232;6.556;2023-03-13T08:41:35;99172.06;;;12.38;83.93
29359;BME280;16347;53.232;6.556;2023-03-13T08:44:04;99216.50;;;12.45;83.14
29359;BME280;16347;53.232;6.556;2023-03-13T08:46:33;99197.44;;;12.32;82.57
29359;BME280;16347;53.232;6.556;2023-03-13T08:49:02;99187.13;;;12.54;81.88
29359;BME280;16347;53.232;6.556;2023-03-13T08:51:31;99200.75;;;12.67;81.03
29359;BME280;16347;53.232;6.556;2023-03-13T08:54:00;99214.38;;;12.67;80.07
29359;BME280;16347;53.232;6.556;2023-03-13T08:56:29;99182.47;;;12.80;79.30
29359;BME280;16347;53.232;6.556;2023-03-13T08:58:59;99262.19;;;12.69;78.99
29359;BME280;16347;53.232;6.556;2023-03-13T09:01:30;99188.16;;;12.66;79.20
29359;BME280;16347;53.232;6.556;2023-03-13T09:03:59;99203.28;;;12.68;79.38
29359;BME280;16347;53.232;6.556;2023-03-13T09:06:30;99208.47;;;12.83;79.76
29359;BME280;16347;53.232;6.556;2023-03-13T09:08:58;99183.09;;;12.89;79.23
29359;BME280;16347;53.232;6.556;2023-03-13T09:11:26;99216.88;;;12.81;78.67
29359;BME280;16347;53.232;6.556;2023-03-13T09:13:55;99216.63;;;12.90;78.37
29359;BME280;16347;53.232;6.556;2023-03-13T09:16:27;99239.94;;;12.92;78.41
29359;BME280;16347;53.232;6.556;2023-03-13T09:18:57;99189.59;;;12.88;78.21
29359;BME280;16347;53.232;6.556;2023-03-13T09:21:27;99202.84;;;12.78;78.45
29359;BME280;16347;53.232;6.556;2023-03-13T09:23:56;99186.06;;;12.68;78.45
29359;BME280;16347;53.232;6.556;2023-03-13T09:26:25;99257.81;;;12.75;77.60
29359;BME280;16347;53.232;6.556;2023-03-13T09:28:54;99200.09;;;12.78;77.87
29359;BME280;16347;53.232;6.556;2023-03-13T09:31:24;99191.69;;;12.79;77.82
29359;BME280;16347;53.232;6.556;2023-03-13T09:33:53;99179.75;;;12.80;77.29
29359;BME280;16347;53.232;6.556;2023-03-13T09:36:22;99183.09;;;12.76;78.02
29359;BME280;16347;53.232;6.556;2023-03-13T09:38:51;99187.09;;;12.67;79.44
29359;BME280;16347;53.232;6.556;2023-03-13T09:41:23;99192.16;;;12.63;79.99
29359;BME280;16347;53.232;6.556;2023-03-13T09:44:00;99200.75;;;12.60;79.55
29359;BME280;16347;53.232;6.556;2023-03-13T09:46:35;99173.50;;;12.54;78.92
29359;BME280;16347;53.232;6.556;2023-03-13T09:49:11;99157.78;;;12.43;78.81
29359;BME280;16347;53.232;6.556;2023-03-13T09:51:46;99186.72;;;12.44;77.96
29359;BME280;16347;53.232;6.556;2023-03-13T09:54:23;99188.81;;;12.55;77.32
29359;BME280;16347;53.232;6.556;2023-03-13T09:56:54;99164.66;;;12.71;75.93
29359;BME280;16347;53.232;6.556;2023-03-13T09:59:28;99158.34;;;12.77;75.02
29359;BME280;16347;53.232;6.556;2023-03-13T10:01:58;99166.09;;;12.80;74.28
29359;BME280;16347;53.232;6.556;2023-03-13T10:04:33;99178.47;;;12.83;73.71
29359;BME280;16347;53.232;6.556;2023-03-13T10:07:09;99152.69;;;12.79;73.06
29359;BME280;16347;53.232;6.556;2023-03-13T10:09:37;99153.25;;;12.94;72.83
29359;BME280;16347;53.232;6.556;2023-03-13T10:12:11;99135.63;;;12.97;72.57
29359;BME280;16347;53.232;6.556;2023-03-13T10:14:44;99156.59;;;13.16;71.92
29359;BME280;16347;53.232;6.556;2023-03-13T10:17:24;99140.84;;;13.11;69.55
29359;BME280;16347;53.232;6.556;2023-03-13T10:19:59;99155.75;;;13.15;68.72
29359;BME280;16347;53.232;6.556;2023-03-13T10:22:29;99146.81;;;13.33;68.44
29359;BME280;16347;53.232;6.556;2023-03-13T10:24:59;99137.28;;;13.55;68.34
29359;BME280;16347;53.232;6.556;2023-03-13T10:27:29;99144.78;;;13.66;67.28
29359;BME280;16347;53.232;6.556;2023-03-13T10:29:58;99190.31;;;13.72;66.77
29359;BME280;16347;53.232;6.556;2023-03-13T10:32:26;99154.91;;;13.59;65.72
29359;BME280;16347;53.232;6.556;2023-03-13T10:34:57;99139.31;;;13.66;65.22
29359;BME280;16347;53.232;6.556;2023-03-13T10:37:28;99119.19;;;13.54;64.67
29359;BME280;16347;53.232;6.556;2023-03-13T10:40:12;99139.75;;;13.57;63.84
29359;BME280;16347;53.232;6.556;2023-03-13T10:42:43;99134.69;;;13.60;63.30
29359;BME280;16347;53.232;6.556;2023-03-13T10:45:15;99147.09;;;13.63;62.60
29359;BME280;16347;53.232;6.556;2023-03-13T10:47:43;99137.56;;;13.72;62.22
29359;BME280;16347;53.232;6.556;2023-03-13T10:50:21;99203.41;;;13.57;61.52
29359;BME280;16347;53.232;6.556;2023-03-13T10:52:50;99121.31;;;13.52;62.04
29359;BME280;16347;53.232;6.556;2023-03-13T10:55:20;99128.88;;;13.50;61.51
29359;BME280;16347;53.232;6.556;2023-03-13T10:57:56;99127.78;;;13.58;61.60
29359;BME280;16347;53.232;6.556;2023-03-13T11:00:33;99144.31;;;13.69;61.54
29359;BME280;16347;53.232;6.556;2023-03-13T11:03:05;99141.25;;;13.59;61.61
29359;BME280;16347;53.232;6.556;2023-03-13T11:05:40;99157.00;;;13.57;62.18
29359;BME280;16347;53.232;6.556;2023-03-13T11:08:19;99158.44;;;13.66;62.10
29359;BME280;16347;53.232;6.556;2023-03-13T11:10:59;99139.31;;;13.60;62.37
29359;BME280;16347;53.232;6.556;2023-03-13T11:13:32;99144.78;;;13.66;62.17
29359;BME280;16347;53.232;6.556;2023-03-13T11:16:18;99092.09;;;13.59;62.71
29359;BME280;16347;53.232;6.556;2023-03-13T11:19:03;99106.09;;;13.69;62.14
29359;BME280;16347;53.232;6.556;2023-03-13T11:21:43;99181.31;;;13.65;62.78
29359;BME280;16347;53.232;6.556;2023-03-13T11:24:21;99095.97;;;13.76;63.00
29359;BME280;16347;53.232;6.556;2023-03-13T11:26:57;99126.41;;;13.73;63.00
29359;BME280;16347;53.232;6.556;2023-03-13T11:29:35;99107.94;;;13.75;62.68
29359;BME280;16347;53.232;6.556;2023-03-13T11:32:19;99117.25;;;13.93;62.46
29359;BME280;16347;53.232;6.556;2023-03-13T11:34:51;99161.53;;;14.01;62.51
29359;BME280;16347;53.232;6.556;2023-03-13T11:37:23;99103.31;;;14.01;62.42
29359;BME280;16347;53.232;6.556;2023-03-13T11:40:02;99112.84;;;13.92;62.28
29359;BME280;16347;53.232;6.556;2023-03-13T11:42:39;99144.63;;;13.86;62.89
29359;BME280;16347;53.232;6.556;2023-03-13T11:45:13;99085.63;;;13.78;63.00
29359;BME280;16347;53.232;6.556;2023-03-13T11:47:55;99109.38;;;13.78;62.68
29359;BME280;16347;53.232;6.556;2023-03-13T11:50:33;99165.44;;;13.80;62.12
29359;BME280;16347;53.232;6.556;2023-03-13T11:53:15;99119.25;;;13.79;61.38
29359;BME280;16347;53.232;6.556;2023-03-13T11:55:58;99119.34;;;13.91;61.03
29359;BME280;16347;53.232;6.556;2023-03-13T11:58:48;99068.47;;;13.96;60.42
29359;BME280;16347;53.232;6.556;2023-03-13T12:01:19;99103.63;;;14.11;60.08
29359;BME280;16347;53.232;6.556;2023-03-13T12:03:55;99084.50;;;14.11;59.54
29359;BME280;16347;53.232;6.556;2023-03-13T12:06:29;99092.59;;;13.99;57.88
29359;BME280;16347;53.232;6.556;2023-03-13T12:09:04;99070.19;;;14.15;57.83
29359;BME280;16347;53.232;6.556;2023-03-13T12:11:38;99121.19;;;14.03;58.08
29359;BME280;16347;53.232;6.556;2023-03-13T12:14:12;99064.09;;;14.13;57.89
29359;BME280;16347;53.232;6.556;2023-03-13T12:16:44;99066.38;;;14.16;57.99
29359;BME280;16347;53.232;6.556;2023-03-13T12:19:19;99090.22;;;14.09;57.86
29359;BME280;16347;53.232;6.556;2023-03-13T12:21:52;99075.47;;;14.10;57.72
29359;BME280;16347;53.232;6.556;2023-03-13T12:24:26;99060.09;;;13.91;57.59
29359;BME280;16347;53.232;6.556;2023-03-13T12:26:59;99030.59;;;14.00;57.56
29359;BME280;16347;53.232;6.556;2023-03-13T12:29:38;99058.06;;;14.05;56.83
29359;BME280;16347;53.232;6.556;2023-03-13T12:32:12;99050.25;;;14.33;56.96
29359;BME280;16347;53.232;6.556;2023-03-13T12:34:51;99058.72;;;14.25;56.76
29359;BME280;16347;53.232;6.556;2023-03-13T12:37:27;99051.13;;;14.27;56.67
29359;BME280;16347;53.232;6.556;2023-03-13T12:40:00;99046.38;;;14.41;56.90
29359;BME280;16347;53.232;6.556;2023-03-13T12:42:44;99037.13;;;14.42;56.69
29359;BME280;16347;53.232;6.556;2023-03-13T12:45:16;99013.66;;;14.34;56.64
29359;BME280;16347;53.232;6.556;2023-03-13T12:48:05;99141.22;;;14.47;56.26
29359;BME280;16347;53.232;6.556;2023-03-13T12:50:46;99087.56;;;14.46;56.33
29359;BME280;16347;53.232;6.556;2023-03-13T12:53:50;99065.09;;;14.44;55.80
29359;BME280;16347;53.232;6.556;2023-03-13T12:56:33;99033.78;;;14.40;55.61
29359;BME280;16347;53.232;6.556;2023-03-13T12:59:06;99011.47;;;14.43;54.52
29359;BME280;16347;53.232;6.556;2023-03-13T13:01:39;99059.63;;;14.62;53.97
29359;BME280;16347;53.232;6.556;2023-03-13T13:04:11;99001.28;;;14.50;54.43
29359;BME280;16347;53.232;6.556;2023-03-13T13:06:53;99017.91;;;14.48;54.19
29359;BME280;16347;53.232;6.556;2023-03-13T13:09:23;99061.59;;;14.36;53.44
29359;BME280;16347;53.232;6.556;2023-03-13T13:11:55;99067.50;;;14.33;53.08
29359;BME280;16347;53.232;6.556;2023-03-13T13:14:56;99013.75;;;14.46;53.37
29359;BME280;16347;53.232;6.556;2023-03-13T13:17:42;99030.28;;;14.51;52.50
29359;BME280;16347;53.232;6.556;2023-03-13T13:20:29;99059.47;;;14.57;52.78
29359;BME280;16347;53.232;6.556;2023-03-13T13:25:40;99002.03;;;14.57;52.56
29359;BME280;16347;53.232;6.556;2023-03-13T13:28:23;98998.75;;;14.66;52.38
29359;BME280;16347;53.232;6.556;2023-03-13T13:30:55;98999.31;;;14.57;52.08
29359;BME280;16347;53.232;6.556;2023-03-13T13:33:37;98994.50;;;14.70;51.99
29359;BME280;16347;53.232;6.556;2023-03-13T13:36:28;99040.78;;;14.54;51.34
29359;BME280;16347;53.232;6.556;2023-03-13T13:38:57;98996.88;;;14.49;52.00